Time;durP1;ratioP1;P1;durP2;ratioP2;P2;SDS_P1;SDS_P2;PMS_P1;PMS_P2;Temp;Humidity;BMP_temperature;BMP_pressure;BME280_temperature;BME280_humidity;BME280_pressure;Samples;Min_cycle;Max_cycle;Signal;HPM_P1;HPM_P2
2022/04/13 00:00:16;;;;;;;10.93;7.60;;;;;;;4.72;78.29;99202.75;5015240;28;20055;-67
2022/04/13 00:02:41;;;;;;;9.27;6.57;;;;;;;4.69;78.23;99208.19;5015299;28;20147;-71
2022/04/13 00:05:07;;;;;;;10.73;7.25;;;;;;;4.68;78.49;99201.19;5015820;28;20135;-71
2022/04/13 00:07:32;;;;;;;14.07;7.82;;;;;;;4.66;78.26;99207.50;5001986;28;20131;-70
2022/04/13 00:09:57;;;;;;;12.20;7.38;;;;;;;4.64;78.44;99202.28;4988657;28;20147;-70
2022/04/13 00:12:22;;;;;;;14.90;7.40;;;;;;;4.60;78.54;99208.69;4992431;28;20415;-70
2022/04/13 00:14:47;;;;;;;12.15;7.45;;;;;;;4.59;78.63;99203.50;5004622;28;20025;-77
2022/04/13 00:17:12;;;;;;;10.32;6.88;;;;;;;4.60;78.23;99200.78;5006486;28;20051;-75
2022/04/13 00:19:36;;;;;;;9.93;6.70;;;;;;;4.54;78.18;99201.09;5007006;28;20127;-70
2022/04/13 00:22:01;;;;;;;10.68;7.55;;;;;;;4.53;78.50;99209.94;5015007;28;20044;-75
2022/04/13 00:24:26;;;;;;;13.90;7.55;;;;;;;4.52;78.52;99210.88;4977800;28;20537;-74
2022/04/13 00:26:51;;;;;;;10.20;7.25;;;;;;;4.55;78.29;99213.34;4976945;28;20044;-71
2022/04/13 00:29:16;;;;;;;14.27;8.77;;;;;;;4.52;78.49;99210.88;5000981;28;20052;-70
2022/04/13 00:31:41;;;;;;;15.10;7.95;;;;;;;4.55;78.75;99201.94;5002042;28;20789;-72
2022/04/13 00:34:06;;;;;;;10.45;7.20;;;;;;;4.55;78.57;99208.06;4998169;28;21054;-73
2022/04/13 00:36:31;;;;;;;12.10;7.53;;;;;;;4.53;78.82;99204.66;5016650;28;20510;-69
2022/04/13 00:38:55;;;;;;;11.10;7.55;;;;;;;4.53;78.49;99198.53;5016280;28;20123;-72
2022/04/13 00:41:21;;;;;;;12.48;7.85;;;;;;;4.54;78.48;99209.00;4992315;28;20133;-72
2022/04/13 00:44:10;;;;;;;11.18;7.60;;;;;;;4.60;78.65;99213.97;4990238;28;20044;-68
2022/04/13 00:46:35;;;;;;;12.45;7.10;;;;;;;4.52;78.61;99207.38;5011289;28;20056;-72
2022/04/13 00:49:01;;;;;;;11.27;8.20;;;;;;;4.53;78.50;99214.38;4968391;28;20124;-70
2022/04/13 00:51:26;;;;;;;10.60;7.47;;;;;;;4.51;78.46;99210.97;5013384;28;20843;-72
2022/04/13 00:53:52;;;;;;;10.60;7.10;;;;;;;4.50;78.34;99215.41;4999063;28;20045;-77
2022/04/13 00:56:21;;;;;;;10.70;6.78;;;;;;;4.50;78.54;99207.50;4989268;28;20029;-76
2022/04/13 00:58:47;;;;;;;10.00;7.03;;;;;;;4.49;78.40;99213.69;5025254;28;20131;-78
2022/04/13 01:01:15;;;;;;;9.88;7.43;;;;;;;4.49;78.58;99212.84;4998601;28;20033;-80
2022/04/13 01:03:44;;;;;;;10.15;7.25;;;;;;;4.48;78.48;99211.13;5001408;28;20041;-78
2022/04/13 01:06:10;;;;;;;11.05;7.60;;;;;;;4.48;78.78;99211.13;5008159;28;20041;-73
2022/04/13 01:08:38;;;;;;;11.73;8.27;;;;;;;4.50;78.67;99204.84;5001460;28;20040;-76
2022/04/13 01:11:02;;;;;;;10.27;7.53;;;;;;;4.51;78.81;99210.97;4993626;28;20546;-75
2022/04/13 01:13:27;;;;;;;10.70;7.07;;;;;;;4.50;78.82;99204.00;5002186;28;20517;-73
2022/04/13 01:15:52;;;;;;;10.00;7.03;;;;;;;4.50;78.75;99210.13;4998572;28;20029;-78
2022/04/13 01:18:18;;;;;;;11.23;7.18;;;;;;;4.51;78.66;99208.34;5005941;28;20049;-79
2022/04/13 01:20:54;;;;;;;9.75;7.22;;;;;;;4.57;78.99;99213.28;5025757;28;20068;-78
2022/04/13 01:23:20;;;;;;;12.68;7.28;;;;;;;4.54;78.57;99221.34;4989431;28;20040;-77
2022/04/13 01:25:49;;;;;;;9.82;7.38;;;;;;;4.55;78.71;99215.13;5018687;28;20049;-76
2022/04/13 01:28:14;;;;;;;9.73;7.35;;;;;;;4.51;78.51;99222.41;5001649;28;20034;-76
2022/04/13 01:30:39;;;;;;;11.75;7.68;;;;;;;4.54;78.43;99218.72;5021432;28;20037;-75
2022/04/13 01:33:04;;;;;;;12.57;8.48;;;;;;;4.55;78.53;99220.41;5025314;28;20127;-76
2022/04/13 01:35:29;;;;;;;13.25;8.23;;;;;;;4.54;78.23;99216.94;5012886;28;20404;-74
2022/04/13 01:37:54;;;;;;;13.75;8.13;;;;;;;4.52;78.32;99216.16;5018148;28;20049;-79
2022/04/13 01:40:21;;;;;;;13.07;7.97;;;;;;;4.49;78.54;99216.34;5024851;28;20190;-78
2022/04/13 01:42:47;;;;;;;12.35;7.65;;;;;;;4.45;78.41;99222.72;5024759;28;20111;-73
2022/04/13 01:45:13;;;;;;;10.43;7.00;;;;;;;4.42;78.31;99225.50;5014048;28;20047;-75
2022/04/13 01:47:38;;;;;;;11.05;7.63;;;;;;;4.43;78.57;99221.06;4996620;28;20407;-74
2022/04/13 01:50:03;;;;;;;11.23;7.43;;;;;;;4.43;78.63;99227.22;5022354;28;20709;-74
2022/04/13 01:52:27;;;;;;;8.50;6.63;;;;;;;4.42;78.93;99214.94;5005807;28;20037;-80
2022/04/13 01:54:52;;;;;;;11.27;7.20;;;;;;;4.42;78.97;99230.78;5022902;28;20045;-77
2022/04/13 01:57:19;;;;;;;11.30;7.57;;;;;;;4.42;78.80;99217.59;5011179;28;20033;-77
2022/04/13 01:59:46;;;;;;;9.02;6.63;;;;;;;4.42;78.70;99222.84;5024925;28;20064;-77
2022/04/13 02:02:11;;;;;;;10.52;7.13;;;;;;;4.42;78.38;99227.28;5035554;28;20041;-78
2022/04/13 02:04:36;;;;;;;10.38;7.13;;;;;;;4.45;78.78;99222.72;5007343;28;20033;-77
2022/04/13 02:07:01;;;;;;;9.48;6.72;;;;;;;4.43;78.45;99226.34;5017717;28;20040;-76
2022/04/13 02:09:26;;;;;;;9.55;7.03;;;;;;;4.40;78.73;99230.03;5017131;28;20488;-74
2022/04/13 02:11:51;;;;;;;9.60;6.75;;;;;;;4.44;78.37;99241.25;5018173;28;20414;-74
2022/04/13 02:14:16;;;;;;;11.57;7.57;;;;;;;4.41;78.61;99230.84;5017809;28;20082;-71
2022/04/13 02:16:41;;;;;;;10.48;7.15;;;;;;;4.39;78.44;99238.88;4995188;28;20044;-73
2022/04/13 02:19:07;;;;;;;10.23;6.28;;;;;;;4.39;78.59;99241.53;5005899;28;20041;-73
2022/04/13 02:21:32;;;;;;;10.15;6.28;;;;;;;4.36;78.30;99239.03;5007585;28;20041;-72
2022/04/13 02:23:57;;;;;;;11.70;7.45;;;;;;;4.33;78.33;99236.53;4998178;28;20132;-75
2022/04/13 02:26:22;;;;;;;7.93;6.35;;;;;;;4.32;78.67;99243.59;5008078;28;20124;-72
2022/04/13 02:28:48;;;;;;;9.55;6.20;;;;;;;4.31;78.72;99236.63;4967712;28;20062;-71
2022/04/13 02:31:13;;;;;;;10.23;6.85;;;;;;;4.28;78.40;99243.88;5000189;28;20052;-69
2022/04/13 02:33:38;;;;;;;11.32;6.28;;;;;;;4.33;78.56;99255.88;5016823;28;20033;-67
2022/04/13 02:36:05;;;;;;;9.68;6.60;;;;;;;4.32;78.77;99253.31;5010401;28;20091;-66
2022/04/13 02:38:30;;;;;;;8.77;6.18;;;;;;;4.35;78.43;99254.00;4999623;28;20041;-67
2022/04/13 02:40:55;;;;;;;12.20;7.13;;;;;;;4.36;78.40;99260.16;5014536;28;20056;-62
2022/04/13 02:43:20;;;;;;;9.80;6.45;;;;;;;4.35;78.62;99255.78;4997827;28;20045;-68
2022/04/13 02:45:45;;;;;;;10.10;6.43;;;;;;;4.35;78.52;99256.66;4998863;28;20098;-65
2022/04/13 02:48:09;;;;;;;7.95;6.30;;;;;;;4.36;78.33;99260.16;5017360;28;20515;-66
2022/04/13 02:50:34;;;;;;;9.25;6.25;;;;;;;4.33;78.14;99261.16;4998957;28;20047;-68
2022/04/13 02:52:59;;;;;;;10.77;6.75;;;;;;;4.32;78.52;99266.50;5016448;28;20127;-67
2022/04/13 02:55:24;;;;;;;10.00;5.50;;;;;;;4.32;78.19;99255.94;5016990;28;20179;-66
2022/04/13 02:57:49;;;;;;;9.68;6.03;;;;;;;4.29;78.38;99267.50;4998250;28;20070;-73
2022/04/13 03:00:14;;;;;;;8.73;6.65;;;;;;;4.28;78.34;99259.69;5029473;28;20060;-73
2022/04/13 03:02:40;;;;;;;9.55;6.93;;;;;;;4.30;78.19;99260.44;4999047;28;20446;-74
2022/04/13 03:05:05;;;;;;;9.48;6.28;;;;;;;4.29;78.11;99271.94;4998177;28;20132;-73
2022/04/13 03:07:32;;;;;;;7.88;6.35;;;;;;;4.26;78.42;99264.19;5000894;28;20033;-71
2022/04/13 03:09:57;;;;;;;8.55;5.93;;;;;;;4.27;78.16;99265.91;4996970;28;20095;-70
2022/04/13 03:12:23;;;;;;;11.23;6.70;;;;;;;4.30;78.30;99276.28;5002203;28;20449;-69
2022/04/13 03:14:47;;;;;;;9.98;6.47;;;;;;;4.35;78.20;99274.28;5015116;28;20131;-67
2022/04/13 03:17:12;;;;;;;9.88;6.95;;;;;;;4.32;78.06;99280.56;5010535;28;20067;-71
2022/04/13 03:19:37;;;;;;;13.02;7.82;;;;;;;4.32;78.15;99282.34;5025089;28;20048;-73
2022/04/13 03:22:02;;;;;;;10.15;6.70;;;;;;;4.33;78.35;99279.63;5026517;28;20135;-66
2022/04/13 03:24:26;;;;;;;14.25;7.22;;;;;;;4.35;78.14;99280.41;5027183;28;20044;-65
2022/04/13 03:26:52;;;;;;;10.48;6.82;;;;;;;4.36;78.13;99289.19;5023651;28;20175;-68
2022/04/13 03:29:17;;;;;;;11.23;6.90;;;;;;;4.38;78.20;99288.16;5018235;28;20388;-71
2022/04/13 03:31:42;;;;;;;10.13;7.15;;;;;;;4.39;78.37;99289.03;5005961;28;20027;-71
2022/04/13 03:34:07;;;;;;;14.63;7.70;;;;;;;4.42;78.20;99288.84;5000348;28;20057;-74
2022/04/13 03:36:39;;;;;;;11.63;6.97;;;;;;;4.44;78.33;99297.53;5023019;28;20048;-74
2022/04/13 03:39:04;;;;;;;10.15;6.45;;;;;;;4.45;77.99;99295.75;5011928;28;20064;-71
2022/04/13 03:41:28;;;;;;;12.13;6.97;;;;;;;4.48;78.29;99300.88;5014617;28;20047;-71
2022/04/13 03:43:53;;;;;;;13.48;7.30;;;;;;;4.46;78.32;99306.22;5018070;28;20426;-72
2022/04/13 03:46:18;;;;;;;13.38;8.13;;;;;;;4.47;78.04;99293.88;5005837;28;20037;-73
2022/04/13 03:48:42;;;;;;;13.60;7.45;;;;;;;4.48;77.82;99299.09;5003428;28;20044;-73
2022/04/13 03:51:07;;;;;;;10.82;6.68;;;;;;;4.50;78.09;99301.66;5018099;28;20048;-72
2022/04/13 03:53:32;;;;;;;11.52;6.88;;;;;;;4.51;77.80;99301.59;5024774;28;20045;-72
2022/04/13 03:55:57;;;;;;;9.70;6.35;;;;;;;4.53;77.97;99302.31;5032747;28;20048;-71
2022/04/13 03:58:22;;;;;;;11.18;7.22;;;;;;;4.54;77.98;99306.69;5034726;28;20040;-69
2022/04/13 04:00:47;;;;;;;10.60;7.15;;;;;;;4.54;77.75;99297.91;5019509;28;20061;-73
2022/04/13 04:03:12;;;;;;;11.75;7.20;;;;;;;4.55;77.70;99307.53;4998153;28;20415;-77
2022/04/13 04:05:37;;;;;;;12.68;6.80;;;;;;;4.55;77.66;99304.91;5016691;28;20087;-76
2022/04/13 04:08:01;;;;;;;11.05;6.70;;;;;;;4.56;77.72;99307.47;5022088;28;20079;-76
2022/04/13 04:10:26;;;;;;;9.00;6.20;;;;;;;4.59;77.54;99315.22;5021033;28;20045;-76
2022/04/13 04:12:51;;;;;;;10.55;6.85;;;;;;;4.56;77.61;99312.75;5021965;28;20502;-77
2022/04/13 04:15:16;;;;;;;10.27;7.70;;;;;;;4.55;77.40;99313.66;5020432;28;20049;-76
2022/04/13 04:17:40;;;;;;;10.15;6.72;;;;;;;4.57;77.82;99306.53;5018100;28;20072;-76
2022/04/13 04:20:09;;;;;;;12.13;7.95;;;;;;;4.62;77.54;99314.22;5014888;28;20057;-77
2022/04/13 04:22:35;;;;;;;10.05;6.68;;;;;;;4.61;77.53;99313.38;5016644;28;20060;-76
2022/04/13 04:25:04;;;;;;;13.32;7.53;;;;;;;4.59;77.33;99324.94;4998090;28;20045;-71
2022/04/13 04:27:29;;;;;;;13.15;6.68;;;;;;;4.61;77.46;99320.44;5015339;28;20041;-72
2022/04/13 04:29:53;;;;;;;14.05;6.53;;;;;;;4.60;77.28;99319.56;4997313;28;20047;-72
2022/04/13 04:32:18;;;;;;;8.32;5.93;;;;;;;4.62;77.08;99315.06;5015386;28;20048;-72
2022/04/13 04:34:43;;;;;;;11.43;7.75;;;;;;;4.61;77.42;99316.00;5015340;28;20043;-73
2022/04/13 04:37:07;;;;;;;12.95;7.10;;;;;;;4.60;77.24;99319.56;5014559;28;20047;-71
2022/04/13 04:39:32;;;;;;;10.35;6.68;;;;;;;4.61;77.46;99323.94;4997070;28;20041;-71
2022/04/13 04:41:57;;;;;;;10.30;7.30;;;;;;;4.64;77.14;99323.75;4980644;28;20501;-72
2022/04/13 04:44:22;;;;;;;12.95;8.18;;;;;;;4.64;77.19;99329.03;5015596;28;20045;-71
2022/04/13 04:46:47;;;;;;;12.88;6.88;;;;;;;4.67;77.24;99335.94;4998096;28;20063;-71
2022/04/13 04:49:11;;;;;;;12.57;6.97;;;;;;;4.70;77.23;99327.88;5015390;28;20040;-73
2022/04/13 04:51:36;;;;;;;12.13;7.13;;;;;;;4.71;77.19;99334.84;5014957;28;20041;-72
2022/04/13 04:54:02;;;;;;;17.27;7.40;;;;;;;4.73;76.89;99333.84;4996978;28;20102;-72
2022/04/13 04:56:27;;;;;;;14.35;7.53;;;;;;;4.75;76.79;99341.66;5015234;28;20052;-72
2022/04/13 04:58:52;;;;;;;11.80;7.53;;;;;;;4.74;77.00;99339.94;5013460;28;20051;-73
2022/04/13 05:01:17;;;;;;;11.90;7.47;;;;;;;4.78;76.87;99346.78;4996884;28;20139;-69
2022/04/13 05:03:44;;;;;;;12.75;7.30;;;;;;;4.84;76.76;99340.34;4997189;28;20041;-69
2022/04/13 05:06:09;;;;;;;14.35;7.30;;;;;;;4.88;76.57;99341.88;5015265;28;20041;-73
2022/04/13 05:08:34;;;;;;;11.27;7.00;;;;;;;4.91;76.39;99341.72;5015241;28;20103;-74
2022/04/13 05:11:01;;;;;;;12.88;7.05;;;;;;;4.94;76.56;99352.97;5014919;28;20041;-72
2022/04/13 05:13:25;;;;;;;11.63;6.85;;;;;;;4.96;76.46;99358.19;4997514;28;20068;-74
2022/04/13 05:15:52;;;;;;;13.73;7.80;;;;;;;5.00;76.29;99351.78;5015806;28;20041;-74
2022/04/13 05:18:17;;;;;;;12.23;7.18;;;;;;;4.97;76.21;99355.44;5016140;28;20044;-73
2022/04/13 05:20:41;;;;;;;11.75;6.80;;;;;;;4.97;75.86;99357.22;5001226;28;20048;-73
2022/04/13 05:23:06;;;;;;;10.73;6.85;;;;;;;4.95;76.24;99348.56;5021431;28;20056;-72
2022/04/13 05:25:31;;;;;;;12.13;7.68;;;;;;;4.95;76.12;99338.84;5023214;28;20045;-75
2022/04/13 05:27:55;;;;;;;13.32;7.22;;;;;;;4.97;76.06;99350.16;5027429;28;20122;-73
2022/04/13 05:30:20;;;;;;;11.48;7.15;;;;;;;5.00;75.73;99346.50;5005245;28;20055;-73
2022/04/13 05:32:48;;;;;;;12.27;7.00;;;;;;;4.97;75.90;99341.38;5015046;28;20045;-72
2022/04/13 05:35:12;;;;;;;10.13;6.30;;;;;;;4.97;75.69;99346.66;5003969;28;20104;-72
2022/04/13 05:37:37;;;;;;;10.57;6.28;;;;;;;4.96;75.93;99353.75;5016099;28;20045;-72
2022/04/13 05:40:02;;;;;;;11.20;6.97;;;;;;;5.00;75.63;99351.78;5025952;28;20040;-73
2022/04/13 05:42:27;;;;;;;12.68;7.15;;;;;;;4.99;75.50;99358.00;5037227;28;20028;-72
2022/04/13 05:44:52;;;;;;;12.88;7.38;;;;;;;4.98;75.46;99358.94;5018737;28;20045;-72
2022/04/13 05:47:17;;;;;;;10.25;6.50;;;;;;;5.00;75.65;99365.00;5020345;28;20104;-72
2022/04/13 05:49:42;;;;;;;15.48;7.68;;;;;;;5.02;75.66;99373.69;5031758;28;20040;-72
2022/04/13 05:52:07;;;;;;;14.95;6.97;;;;;;;5.03;75.63;99375.41;5018964;28;20066;-72
2022/04/13 05:54:31;;;;;;;10.68;7.03;;;;;;;5.06;75.46;99372.63;5018481;28;20542;-71
2022/04/13 05:56:56;;;;;;;15.32;7.13;;;;;;;5.07;75.63;99379.59;5018937;28;20041;-72
2022/04/13 05:59:21;;;;;;;11.48;6.85;;;;;;;5.09;75.38;99375.06;5000082;28;20095;-73
2022/04/13 06:01:45;;;;;;;12.35;7.10;;;;;;;5.14;75.00;99378.31;5018025;28;20052;-73
2022/04/13 06:04:10;;;;;;;11.27;6.30;;;;;;;5.15;74.92;99381.81;5018032;28;20045;-72
2022/04/13 06:06:35;;;;;;;13.25;7.90;;;;;;;5.13;74.80;99388.97;5000319;28;20071;-71
2022/04/13 06:09:00;;;;;;;12.00;7.05;;;;;;;5.14;75.07;99386.25;5017837;28;20183;-70
2022/04/13 06:11:24;;;;;;;14.60;7.47;;;;;;;5.19;74.91;99388.66;5012876;28;20051;-71
2022/04/13 06:13:49;;;;;;;14.88;7.38;;;;;;;5.25;75.06;99397.09;5019710;28;20047;-71
2022/04/13 06:16:14;;;;;;;11.70;6.68;;;;;;;5.29;75.16;99390.72;5022233;28;20037;-71
2022/04/13 06:18:38;;;;;;;11.55;6.75;;;;;;;5.35;74.39;99395.66;5023284;28;20045;-72
2022/04/13 06:21:03;;;;;;;12.35;7.43;;;;;;;5.34;74.67;99391.31;5000116;28;20135;-72
2022/04/13 06:23:28;;;;;;;14.85;8.45;;;;;;;5.39;74.61;99391.09;4999810;28;20044;-70
2022/04/13 06:25:54;;;;;;;15.00;8.07;;;;;;;5.42;74.33;99394.38;5000162;28;20077;-72
2022/04/13 06:28:19;;;;;;;14.15;6.82;;;;;;;5.42;74.53;99394.38;5016770;28;20493;-72
2022/04/13 06:30:44;;;;;;;15.05;7.93;;;;;;;5.42;74.26;99402.31;5018007;28;20503;-71
2022/04/13 06:33:08;;;;;;;16.80;8.15;;;;;;;5.43;74.13;99401.38;5017157;28;20491;-73
2022/04/13 06:35:34;;;;;;;12.88;7.35;;;;;;;5.47;74.41;99394.16;4999286;28;20132;-71
2022/04/13 06:37:58;;;;;;;10.90;6.60;;;;;;;5.54;74.11;99406.09;5017158;28;20337;-75
2022/04/13 06:40:23;;;;;;;10.38;6.95;;;;;;;5.60;74.00;99402.28;5017427;28;20462;-72
2022/04/13 06:42:48;;;;;;;10.43;6.50;;;;;;;5.65;73.90;99402.84;4999409;28;20048;-73
2022/04/13 06:45:14;;;;;;;16.25;7.00;;;;;;;5.65;73.49;99421.38;4982645;28;20044;-73
2022/04/13 06:47:40;;;;;;;11.88;7.30;;;;;;;5.65;73.70;99427.50;4982704;28;20047;-72
2022/04/13 06:50:05;;;;;;;10.77;6.35;;;;;;;5.62;73.38;99430.34;4999501;28;20438;-73
2022/04/13 06:52:37;;;;;;;13.52;7.65;;;;;;;5.59;73.26;99427.00;5016749;28;20052;-68
2022/04/13 06:55:02;;;;;;;14.13;7.97;;;;;;;5.51;73.44;99430.06;4998973;28;20103;-72
2022/04/13 06:57:28;;;;;;;10.30;6.20;;;;;;;5.54;73.63;99427.25;5017004;28;20056;-70
2022/04/13 06:59:52;;;;;;;11.85;7.18;;;;;;;5.55;73.35;99433.38;5016702;28;20053;-69
2022/04/13 07:02:17;;;;;;;13.27;7.40;;;;;;;5.54;73.67;99440.47;5017019;28;20051;-71
2022/04/13 07:04:42;;;;;;;9.75;6.15;;;;;;;5.56;73.34;99435.94;4999261;28;20390;-69
2022/04/13 07:07:07;;;;;;;14.80;8.15;;;;;;;5.58;73.62;99435.88;5017044;28;20044;-72
2022/04/13 07:09:32;;;;;;;13.32;6.97;;;;;;;5.60;73.29;99439.28;4982954;28;20049;-71
2022/04/13 07:11:57;;;;;;;11.85;6.85;;;;;;;5.60;73.30;99440.16;5001320;28;20101;-72
2022/04/13 07:14:22;;;;;;;11.35;6.65;;;;;;;5.59;73.48;99448.16;5018966;28;20037;-72
2022/04/13 07:16:46;;;;;;;12.75;7.82;;;;;;;5.60;73.05;99452.50;5018768;28;20044;-73
2022/04/13 07:19:11;;;;;;;17.02;7.95;;;;;;;5.64;73.18;99457.56;5017813;28;20049;-73
2022/04/13 07:21:36;;;;;;;12.95;7.50;;;;;;;5.69;72.98;99449.34;5016899;28;20507;-72
2022/04/13 07:24:01;;;;;;;11.73;7.47;;;;;;;5.68;73.21;99455.59;5017781;28;20045;-74
2022/04/13 07:26:25;;;;;;;10.63;6.65;;;;;;;5.69;72.93;99466.09;5017906;28;20090;-72
2022/04/13 07:28:52;;;;;;;13.23;7.38;;;;;;;5.67;72.84;99448.59;4999936;28;20098;-73
2022/04/13 07:31:19;;;;;;;12.45;7.25;;;;;;;5.67;72.85;99459.16;5018514;28;20072;-72
2022/04/13 07:33:43;;;;;;;16.55;6.97;;;;;;;5.70;73.07;99443.13;5019004;28;20199;-74
2022/04/13 07:36:09;;;;;;;12.82;7.72;;;;;;;5.70;72.95;99459.00;5017009;28;20099;-72
2022/04/13 07:38:33;;;;;;;16.98;7.57;;;;;;;5.70;72.85;99465.16;5017961;28;20040;-73
2022/04/13 07:41:01;;;;;;;11.48;7.47;;;;;;;5.73;72.66;99465.00;4999844;28;20041;-73
2022/04/13 07:43:25;;;;;;;15.25;8.23;;;;;;;5.79;72.83;99461.13;5017148;28;20053;-73
2022/04/13 07:45:50;;;;;;;10.50;6.55;;;;;;;5.79;72.58;99459.34;4999299;28;20048;-73
2022/04/13 07:48:15;;;;;;;18.30;7.68;;;;;;;5.82;72.82;99468.91;5015888;28;20052;-72
2022/04/13 07:50:40;;;;;;;17.13;8.18;;;;;;;5.89;72.82;99470.31;5015820;28;20095;-72
2022/04/13 07:53:05;;;;;;;13.27;7.72;;;;;;;5.93;72.18;99465.72;4997971;28;20041;-72
2022/04/13 07:55:30;;;;;;;14.90;7.90;;;;;;;5.91;71.95;99462.28;5016633;28;20090;-71
2022/04/13 07:57:55;;;;;;;12.95;7.38;;;;;;;5.90;71.73;99474.66;5016153;28;20052;-72
2022/04/13 08:00:20;;;;;;;13.90;8.23;;;;;;;5.89;72.27;99478.25;5015595;28;20057;-72
2022/04/13 08:02:45;;;;;;;14.43;8.57;;;;;;;5.92;71.97;99475.44;5017227;28;20098;-71
2022/04/13 08:05:12;;;;;;;15.02;7.68;;;;;;;5.91;71.78;99468.44;5017993;28;20047;-72
2022/04/13 08:07:37;;;;;;;17.58;8.02;;;;;;;5.89;72.06;99469.44;4999230;28;20064;-71
2022/04/13 08:10:02;;;;;;;13.75;8.45;;;;;;;5.93;72.15;99477.16;5016336;28;20068;-71
2022/04/13 08:12:29;;;;;;;13.02;7.53;;;;;;;5.96;72.16;99482.28;4997956;28;20052;-72
2022/04/13 08:14:55;;;;;;;14.25;7.97;;;;;;;5.96;72.08;99482.28;4998537;28;20048;-71
2022/04/13 08:17:20;;;;;;;14.02;7.60;;;;;;;5.98;72.11;99485.66;5015718;28;20068;-71
2022/04/13 08:19:44;;;;;;;15.93;8.45;;;;;;;6.00;72.31;99475.84;4998038;28;20092;-71
2022/04/13 08:22:09;;;;;;;16.55;9.38;;;;;;;6.08;72.44;99478.97;5016146;28;20045;-71
2022/04/13 08:24:34;;;;;;;16.33;7.88;;;;;;;6.18;71.86;99490.75;5015728;28;20159;-71
2022/04/13 08:26:59;;;;;;;12.80;7.65;;;;;;;6.24;71.61;99480.72;4997774;28;20430;-71
2022/04/13 08:29:24;;;;;;;16.70;9.13;;;;;;;6.30;71.34;99494.50;4997808;28;20044;-70
2022/04/13 08:31:48;;;;;;;13.45;7.82;;;;;;;6.41;70.86;99484.16;4997365;28;20052;-71
2022/04/13 08:34:13;;;;;;;16.67;7.90;;;;;;;6.38;71.32;99488.75;5015034;28;20047;-73
2022/04/13 08:36:38;;;;;;;13.65;7.10;;;;;;;6.38;71.27;99486.97;5015075;28;20110;-72
2022/04/13 08:39:06;;;;;;;13.88;7.25;;;;;;;6.38;71.08;99486.09;5015327;28;20461;-74
2022/04/13 08:41:51;;;;;;;12.23;7.47;;;;;;;6.45;71.27;99479.50;4980893;28;20044;-72
2022/04/13 08:44:22;;;;;;;12.77;7.03;;;;;;;6.44;71.11;99491.03;5015377;28;20053;-74
2022/04/13 08:46:47;;;;;;;13.30;8.10;;;;;;;6.42;71.12;99491.16;4997904;28;20045;-73
2022/04/13 08:49:14;;;;;;;14.35;8.45;;;;;;;6.43;71.34;99494.66;5015479;28;20071;-73
2022/04/13 08:51:39;;;;;;;13.52;6.47;;;;;;;6.43;71.33;99492.00;5015440;28;20442;-73
2022/04/13 08:54:30;;;;;;;15.88;7.38;;;;;;;6.49;70.84;99489.00;4997200;28;20037;-75
2022/04/13 08:56:57;;;;;;;10.93;7.47;;;;;;;6.45;70.91;99485.66;5015446;28;20068;-73
2022/04/13 08:59:31;;;;;;;13.88;7.60;;;;;;;6.46;70.76;99491.81;5015430;28;20526;-74
2022/04/13 09:02:08;;;;;;;14.30;7.10;;;;;;;6.54;71.06;99493.09;5016816;28;20140;-74
2022/04/13 09:04:37;;;;;;;11.73;6.93;;;;;;;6.54;71.08;99497.53;4997947;28;20083;-72
2022/04/13 09:07:03;;;;;;;16.25;7.10;;;;;;;6.54;71.21;99490.44;5015025;28;20630;-74
2022/04/13 09:09:40;;;;;;;13.90;7.75;;;;;;;6.58;70.93;99501.69;4997386;28;20095;-73
2022/04/13 09:12:06;;;;;;;27.48;8.43;;;;;;;6.50;71.06;99498.66;5015936;28;20033;-71
2022/04/13 09:14:31;;;;;;;12.40;6.95;;;;;;;6.45;71.24;99495.38;5017492;28;20134;-73
2022/04/13 09:16:57;;;;;;;17.17;7.70;;;;;;;6.39;71.04;99495.75;5011926;28;20087;-73
2022/04/13 09:19:24;;;;;;;14.32;7.43;;;;;;;6.36;71.06;99510.00;5010577;28;20119;-72
2022/04/13 09:21:50;;;;;;;19.95;8.18;;;;;;;6.31;70.80;99508.59;5004751;28;20438;-71
2022/04/13 09:24:15;;;;;;;14.00;7.88;;;;;;;6.20;71.23;99506.53;5017476;28;20048;-72
2022/04/13 09:26:40;;;;;;;14.68;7.78;;;;;;;6.21;71.34;99507.38;5020223;28;20053;-72
2022/04/13 09:29:05;;;;;;;16.20;8.02;;;;;;;6.23;71.90;99519.56;5002147;28;20037;-72
2022/04/13 09:31:31;;;;;;;18.65;7.28;;;;;;;6.32;71.74;99515.59;4984481;28;20073;-72
2022/04/13 09:33:55;;;;;;;17.88;7.90;;;;;;;6.43;71.58;99515.84;5019559;28;20049;-74
2022/04/13 09:36:20;;;;;;;14.88;8.18;;;;;;;6.50;71.47;99518.03;5018572;28;20162;-73
2022/04/13 09:38:45;;;;;;;11.63;7.75;;;;;;;6.56;71.03;99515.03;5018343;28;20510;-73
2022/04/13 09:41:11;;;;;;;11.70;6.85;;;;;;;6.62;71.02;99524.44;5018530;28;20041;-72
2022/04/13 09:43:36;;;;;;;13.88;6.93;;;;;;;6.69;70.83;99506.38;5019081;28;20048;-73
2022/04/13 09:46:03;;;;;;;12.95;7.22;;;;;;;6.64;70.50;99513.75;5018667;28;20137;-73
2022/04/13 09:48:29;;;;;;;10.77;6.25;;;;;;;6.64;70.51;99519.91;5019181;28;20051;-73
2022/04/13 09:50:57;;;;;;;11.48;6.93;;;;;;;6.68;70.51;99521.41;5019800;28;20053;-73
2022/04/13 09:53:21;;;;;;;12.60;7.13;;;;;;;6.66;70.04;99531.25;5021140;28;20099;-73
2022/04/13 09:55:57;;;;;;;10.52;6.38;;;;;;;6.64;70.42;99522.56;5017727;28;20114;-73
2022/04/13 09:58:24;;;;;;;14.10;7.47;;;;;;;6.57;70.42;99522.03;5018351;28;20055;-72
2022/04/13 10:00:52;;;;;;;10.50;6.60;;;;;;;6.55;70.33;99523.91;5019834;28;20109;-72
2022/04/13 10:03:19;;;;;;;16.63;7.70;;;;;;;6.52;70.68;99515.31;4985676;28;20044;-71
2022/04/13 10:05:54;;;;;;;16.65;7.35;;;;;;;6.60;70.87;99525.44;5000340;28;20049;-73
2022/04/13 10:08:24;;;;;;;11.75;6.85;;;;;;;6.68;70.68;99523.22;5037902;28;20093;-72
2022/04/13 10:10:52;;;;;;;16.17;7.72;;;;;;;6.77;71.01;99512.94;5036821;28;20111;-72
2022/04/13 10:13:37;;;;;;;14.07;6.90;;;;;;;6.91;70.66;99525.38;5019020;28;20048;-74
2022/04/13 10:16:04;;;;;;;18.13;7.07;;;;;;;6.91;69.81;99525.38;4999145;28;20040;-71
2022/04/13 10:18:31;;;;;;;14.95;7.40;;;;;;;6.96;70.13;99519.81;5004842;28;20089;-72
2022/04/13 10:20:56;;;;;;;14.75;8.32;;;;;;;6.97;70.68;99524.19;5020969;28;20053;-73
2022/04/13 10:23:20;;;;;;;13.05;7.70;;;;;;;6.97;70.11;99524.19;4996207;28;20037;-74
2022/04/13 10:25:46;;;;;;;13.93;8.30;;;;;;;6.99;70.18;99525.81;5028719;28;20052;-73
2022/04/13 10:28:14;;;;;;;18.08;8.10;;;;;;;7.07;70.07;99530.66;5037688;28;20041;-73
2022/04/13 10:30:42;;;;;;;14.88;8.02;;;;;;;7.16;70.13;99530.97;5037703;28;20903;-74
2022/04/13 10:33:12;;;;;;;11.52;7.53;;;;;;;7.29;69.91;99531.09;4987830;28;20051;-74
2022/04/13 10:35:39;;;;;;;15.32;8.55;;;;;;;7.32;69.27;99528.25;5015745;28;20045;-74
2022/04/13 10:38:04;;;;;;;15.45;8.85;;;;;;;7.29;69.69;99537.25;5001239;28;20047;-74
2022/04/13 10:40:31;;;;;;;12.65;7.85;;;;;;;7.29;69.72;99537.25;5036615;28;20408;-74
2022/04/13 10:42:59;;;;;;;15.00;7.90;;;;;;;7.21;69.51;99538.66;5026111;28;20183;-75
2022/04/13 10:45:26;;;;;;;13.20;7.72;;;;;;;7.11;69.67;99537.50;5005531;28;20716;-73
2022/04/13 10:48:02;;;;;;;14.90;8.18;;;;;;;7.05;69.78;99546.63;4998386;28;20542;-70
2022/04/13 10:50:41;;;;;;;12.68;7.90;;;;;;;6.92;70.13;99540.34;5021069;28;20400;-72
2022/04/13 10:53:18;;;;;;;14.40;8.45;;;;;;;6.76;69.76;99543.03;5017148;28;20064;-72
2022/04/13 10:55:45;;;;;;;12.13;7.50;;;;;;;6.69;69.85;99540.81;5012759;28;20072;-72
2022/04/13 10:58:27;;;;;;;13.02;7.57;;;;;;;6.71;70.23;99541.59;5017749;28;20033;-73
2022/04/13 11:01:04;;;;;;;14.40;8.30;;;;;;;6.61;70.36;99548.34;5017561;28;20056;-71
2022/04/13 11:03:35;;;;;;;13.60;7.82;;;;;;;6.54;70.31;99550.50;5016533;28;20127;-75
2022/04/13 11:06:02;;;;;;;16.23;7.78;;;;;;;6.55;70.24;99549.53;4999695;28;20051;-73
2022/04/13 11:08:32;;;;;;;17.95;7.60;;;;;;;6.53;70.29;99547.00;4996840;28;20049;-73
2022/04/13 11:10:58;;;;;;;13.52;7.95;;;;;;;6.52;70.75;99544.44;4980919;28;20372;-74
2022/04/13 11:13:23;;;;;;;15.18;7.80;;;;;;;6.57;70.54;99548.50;5027169;28;20051;-72
2022/04/13 11:15:50;;;;;;;13.88;7.43;;;;;;;6.56;70.13;99556.53;5032070;28;20029;-76
2022/04/13 11:18:17;;;;;;;15.02;7.85;;;;;;;6.57;70.85;99560.91;4997900;28;20099;-67
2022/04/13 11:21:01;;;;;;;18.55;7.97;;;;;;;6.68;71.21;99560.28;5016262;28;20040;-68
2022/04/13 11:23:53;;;;;;;13.00;6.80;;;;;;;6.73;70.47;99566.19;5015625;28;20127;-67
2022/04/13 11:26:28;;;;;;;11.15;7.22;;;;;;;6.72;70.09;99557.41;4999043;28;20561;-69
2022/04/13 11:29:17;;;;;;;13.00;6.70;;;;;;;6.69;70.08;99562.88;5019378;28;20048;-67